sensor_id;sensor_type;location;lat;lon;timestamp;P1;durP1;ratioP1;P2;durP2;ratioP2
11427;SDS011;5770;44.504;11.346;2023-09-08T00:02:22;5.60;;;5.10;;
11427;SDS011;5770;44.504;11.346;2023-09-08T00:04:50;5.60;;;4.88;;
11427;SDS011;5770;44.504;11.346;2023-09-08T00:07:17;5.72;;;4.97;;
11427;SDS011;5770;44.504;11.346;2023-09-08T00:09:45;6.22;;;4.90;;
11427;SDS011;5770;44.504;11.346;2023-09-08T00:12:12;7.47;;;4.75;;
11427;SDS011;5770;44.504;11.346;2023-09-08T00:14:40;7.90;;;4.97;;
11427;SDS011;5770;44.504;11.346;2023-09-08T00:17:07;5.05;;;4.60;;
11427;SDS011;5770;44.504;11.346;2023-09-08T00:19:35;5.80;;;4.90;;
11427;SDS011;5770;44.504;11.346;2023-09-08T00:22:03;6.28;;;5.05;;
11427;SDS011;5770;44.504;11.346;2023-09-08T00:24:32;5.80;;;4.97;;
11427;SDS011;5770;44.504;11.346;2023-09-08T00:26:59;5.65;;;5.00;;
11427;SDS011;5770;44.504;11.346;2023-09-08T00:29:26;5.43;;;4.93;;
11427;SDS011;5770;44.504;11.346;2023-09-08T00:31:55;6.15;;;4.88;;
11427;SDS011;5770;44.504;11.346;2023-09-08T00:34:22;5.22;;;4.63;;
11427;SDS011;5770;44.504;11.346;2023-09-08T00:36:49;10.00;;;5.28;;
11427;SDS011;5770;44.504;11.346;2023-09-08T00:39:16;5.35;;;4.53;;
11427;SDS011;5770;44.504;11.346;2023-09-08T00:41:43;10.57;;;5.25;;
11427;SDS011;5770;44.504;11.346;2023-09-08T00:44:10;5.30;;;4.78;;
11427;SDS011;5770;44.504;11.346;2023-09-08T00:46:37;7.53;;;4.70;;
11427;SDS011;5770;44.504;11.346;2023-09-08T00:49:06;10.02;;;5.03;;
11427;SDS011;5770;44.504;11.346;2023-09-08T00:51:34;8.00;;;5.22;;
11427;SDS011;5770;44.504;11.346;2023-09-08T00:54:03;6.80;;;5.00;;
11427;SDS011;5770;44.504;11.346;2023-09-08T00:56:30;5.40;;;4.90;;
11427;SDS011;5770;44.504;11.346;2023-09-08T00:58:57;5.70;;;5.20;;
11427;SDS011;5770;44.504;11.346;2023-09-08T01:01:24;5.45;;;4.95;;
11427;SDS011;5770;44.504;11.346;2023-09-08T01:03:52;5.38;;;4.72;;
11427;SDS011;5770;44.504;11.346;2023-09-08T01:06:22;8.32;;;5.10;;
11427;SDS011;5770;44.504;11.346;2023-09-08T01:08:50;7.95;;;5.10;;
11427;SDS011;5770;44.504;11.346;2023-09-08T01:13:45;8.35;;;4.78;;
11427;SDS011;5770;44.504;11.346;2023-09-08T01:16:13;6.53;;;4.88;;
11427;SDS011;5770;44.504;11.346;2023-09-08T01:18:40;5.40;;;4.90;;
11427;SDS011;5770;44.504;11.346;2023-09-08T01:21:29;5.10;;;4.60;;
11427;SDS011;5770;44.504;11.346;2023-09-08T01:24:28;9.55;;;4.82;;
11427;SDS011;5770;44.504;11.346;2023-09-08T01:27:01;8.50;;;4.75;;
11427;SDS011;5770;44.504;11.346;2023-09-08T01:29:29;5.20;;;4.70;;
11427;SDS011;5770;44.504;11.346;2023-09-08T01:31:56;5.35;;;4.85;;
11427;SDS011;5770;44.504;11.346;2023-09-08T01:34:23;6.32;;;4.95;;
11427;SDS011;5770;44.504;11.346;2023-09-08T01:36:51;5.78;;;4.88;;
11427;SDS011;5770;44.504;11.346;2023-09-08T01:39:18;8.65;;;4.97;;
11427;SDS011;5770;44.504;11.346;2023-09-08T01:41:45;7.40;;;5.18;;
11427;SDS011;5770;44.504;11.346;2023-09-08T01:44:14;5.72;;;5.05;;
11427;SDS011;5770;44.504;11.346;2023-09-08T01:46:41;7.90;;;5.70;;
11427;SDS011;5770;44.504;11.346;2023-09-08T01:49:08;4.82;;;4.43;;
11427;SDS011;5770;44.504;11.346;2023-09-08T01:51:36;6.47;;;5.05;;
11427;SDS011;5770;44.504;11.346;2023-09-08T01:54:03;5.78;;;4.90;;
11427;SDS011;5770;44.504;11.346;2023-09-08T01:56:30;6.82;;;5.35;;
11427;SDS011;5770;44.504;11.346;2023-09-08T01:58:57;5.90;;;5.07;;
11427;SDS011;5770;44.504;11.346;2023-09-08T02:01:26;6.15;;;4.72;;
11427;SDS011;5770;44.504;11.346;2023-09-08T02:03:53;5.57;;;4.72;;
11427;SDS011;5770;44.504;11.346;2023-09-08T02:06:20;5.70;;;5.00;;
11427;SDS011;5770;44.504;11.346;2023-09-08T02:08:48;5.32;;;4.82;;
11427;SDS011;5770;44.504;11.346;2023-09-08T02:11:15;5.85;;;4.75;;
11427;SDS011;5770;44.504;11.346;2023-09-08T02:13:42;5.80;;;4.90;;
11427;SDS011;5770;44.504;11.346;2023-09-08T02:16:12;5.45;;;4.65;;
11427;SDS011;5770;44.504;11.346;2023-09-08T02:18:41;7.72;;;5.38;;
11427;SDS011;5770;44.504;11.346;2023-09-08T02:21:08;5.03;;;4.57;;
11427;SDS011;5770;44.504;11.346;2023-09-08T02:23:35;5.68;;;5.18;;
11427;SDS011;5770;44.504;11.346;2023-09-08T02:26:02;5.40;;;4.90;;
11427;SDS011;5770;44.504;11.346;2023-09-08T02:28:29;5.80;;;5.22;;
11427;SDS011;5770;44.504;11.346;2023-09-08T02:30:56;9.23;;;5.10;;
11427;SDS011;5770;44.504;11.346;2023-09-08T02:33:23;5.55;;;4.95;;
11427;SDS011;5770;44.504;11.346;2023-09-08T02:35:52;7.28;;;4.65;;
11427;SDS011;5770;44.504;11.346;2023-09-08T02:38:19;5.00;;;4.53;;
11427;SDS011;5770;44.504;11.346;2023-09-08T02:40:46;5.85;;;4.40;;
11427;SDS011;5770;44.504;11.346;2023-09-08T02:43:13;9.45;;;5.38;;
11427;SDS011;5770;44.504;11.346;2023-09-08T02:45:40;7.30;;;4.90;;
11427;SDS011;5770;44.504;11.346;2023-09-08T02:48:07;5.60;;;4.78;;
11427;SDS011;5770;44.504;11.346;2023-09-08T02:50:34;5.80;;;5.03;;
11427;SDS011;5770;44.504;11.346;2023-09-08T02:53:03;7.32;;;5.30;;
11427;SDS011;5770;44.504;11.346;2023-09-08T02:55:30;8.82;;;5.15;;
11427;SDS011;5770;44.504;11.346;2023-09-08T02:57:57;5.13;;;4.72;;
11427;SDS011;5770;44.504;11.346;2023-09-08T03:00:24;5.72;;;4.93;;
11427;SDS011;5770;44.504;11.346;2023-09-08T03:02:52;5.85;;;4.47;;
11427;SDS011;5770;44.504;11.346;2023-09-08T03:05:19;5.60;;;5.10;;
11427;SDS011;5770;44.504;11.346;2023-09-08T03:07:47;5.20;;;4.70;;
11427;SDS011;5770;44.504;11.346;2023-09-08T03:10:16;6.15;;;5.00;;
11427;SDS011;5770;44.504;11.346;2023-09-08T03:12:43;6.90;;;5.13;;
11427;SDS011;5770;44.504;11.346;2023-09-08T03:15:10;5.90;;;5.20;;
11427;SDS011;5770;44.504;11.346;2023-09-08T03:17:37;6.03;;;4.97;;
11427;SDS011;5770;44.504;11.346;2023-09-08T03:20:05;9.65;;;5.40;;
11427;SDS011;5770;44.504;11.346;2023-09-08T03:22:33;6.75;;;5.07;;
11427;SDS011;5770;44.504;11.346;2023-09-08T03:25:00;5.43;;;4.93;;
11427;SDS011;5770;44.504;11.346;2023-09-08T03:27:29;10.43;;;5.07;;
11427;SDS011;5770;44.504;11.346;2023-09-08T03:29:56;4.97;;;4.53;;
11427;SDS011;5770;44.504;11.346;2023-09-08T03:32:23;6.32;;;5.10;;
11427;SDS011;5770;44.504;11.346;2023-09-08T03:34:51;5.88;;;5.28;;
11427;SDS011;5770;44.504;11.346;2023-09-08T03:37:17;6.75;;;5.35;;
11427;SDS011;5770;44.504;11.346;2023-09-08T03:39:45;7.63;;;5.00;;
11427;SDS011;5770;44.504;11.346;2023-09-08T03:42:12;6.10;;;4.93;;
11427;SDS011;5770;44.504;11.346;2023-09-08T03:44:40;5.50;;;5.00;;
11427;SDS011;5770;44.504;11.346;2023-09-08T03:47:07;9.75;;;4.97;;
11427;SDS011;5770;44.504;11.346;2023-09-08T03:49:34;7.15;;;5.03;;
11427;SDS011;5770;44.504;11.346;2023-09-08T03:52:02;8.88;;;5.55;;
11427;SDS011;5770;44.504;11.346;2023-09-08T03:54:29;5.50;;;5.00;;
11427;SDS011;5770;44.504;11.346;2023-09-08T03:56:56;9.32;;;5.15;;
11427;SDS011;5770;44.504;11.346;2023-09-08T03:59:24;6.53;;;5.25;;
11427;SDS011;5770;44.504;11.346;2023-09-08T04:01:52;6.70;;;5.07;;
11427;SDS011;5770;44.504;11.346;2023-09-08T04:04:19;5.78;;;4.75;;
11427;SDS011;5770;44.504;11.346;2023-09-08T04:06:46;5.72;;;5.15;;
11427;SDS011;5770;44.504;11.346;2023-09-08T04:09:13;6.88;;;5.22;;
11427;SDS011;5770;44.504;11.346;2023-09-08T04:11:41;9.05;;;5.18;;
11427;SDS011;5770;44.504;11.346;2023-09-08T04:14:08;6.05;;;5.38;;
11427;SDS011;5770;44.504;11.346;2023-09-08T04:16:35;8.48;;;5.00;;
11427;SDS011;5770;44.504;11.346;2023-09-08T04:19:03;7.32;;;4.78;;
11427;SDS011;5770;44.504;11.346;2023-09-08T04:21:30;5.55;;;5.03;;
11427;SDS011;5770;44.504;11.346;2023-09-08T04:23:58;7.90;;;5.32;;
11427;SDS011;5770;44.504;11.346;2023-09-08T04:26:25;7.00;;;5.00;;
11427;SDS011;5770;44.504;11.346;2023-09-08T04:28:52;8.48;;;5.38;;
11427;SDS011;5770;44.504;11.346;2023-09-08T04:31:19;7.55;;;5.18;;
11427;SDS011;5770;44.504;11.346;2023-09-08T04:33:47;5.68;;;5.18;;
11427;SDS011;5770;44.504;11.346;2023-09-08T04:36:15;5.78;;;5.22;;
11427;SDS011;5770;44.504;11.346;2023-09-08T04:38:42;8.88;;;5.60;;
11427;SDS011;5770;44.504;11.346;2023-09-08T04:41:09;12.55;;;6.00;;
11427;SDS011;5770;44.504;11.346;2023-09-08T04:43:37;5.95;;;5.00;;
11427;SDS011;5770;44.504;11.346;2023-09-08T04:46:04;7.50;;;5.13;;
11427;SDS011;5770;44.504;11.346;2023-09-08T04:48:31;9.95;;;5.38;;
11427;SDS011;5770;44.504;11.346;2023-09-08T04:50:58;8.13;;;5.90;;
11427;SDS011;5770;44.504;11.346;2023-09-08T04:53:26;6.00;;;5.40;;
11427;SDS011;5770;44.504;11.346;2023-09-08T04:55:54;6.30;;;5.70;;
11427;SDS011;5770;44.504;11.346;2023-09-08T04:58:21;6.53;;;5.43;;
11427;SDS011;5770;44.504;11.346;2023-09-08T05:00:48;7.90;;;5.55;;
11427;SDS011;5770;44.504;11.346;2023-09-08T05:03:15;7.45;;;5.22;;
11427;SDS011;5770;44.504;11.346;2023-09-08T05:05:44;6.05;;;5.45;;
11427;SDS011;5770;44.504;11.346;2023-09-08T05:08:11;6.32;;;4.82;;
11427;SDS011;5770;44.504;11.346;2023-09-08T05:10:40;7.53;;;5.35;;
11427;SDS011;5770;44.504;11.346;2023-09-08T05:13:07;6.72;;;5.25;;
11427;SDS011;5770;44.504;11.346;2023-09-08T05:15:34;8.35;;;5.38;;
11427;SDS011;5770;44.504;11.346;2023-09-08T05:18:02;10.00;;;5.72;;
11427;SDS011;5770;44.504;11.346;2023-09-08T05:20:30;9.93;;;5.63;;
11427;SDS011;5770;44.504;11.346;2023-09-08T05:22:57;7.82;;;5.32;;
11427;SDS011;5770;44.504;11.346;2023-09-08T05:25:24;9.75;;;5.35;;
11427;SDS011;5770;44.504;11.346;2023-09-08T05:27:52;6.18;;;5.55;;
11427;SDS011;5770;44.504;11.346;2023-09-08T05:30:19;10.63;;;5.50;;
11427;SDS011;5770;44.504;11.346;2023-09-08T05:32:47;5.97;;;5.38;;
11427;SDS011;5770;44.504;11.346;2023-09-08T05:35:14;9.95;;;5.68;;
11427;SDS011;5770;44.504;11.346;2023-09-08T05:37:41;10.75;;;5.55;;
11427;SDS011;5770;44.504;11.346;2023-09-08T05:40:08;7.32;;;5.10;;
11427;SDS011;5770;44.504;11.346;2023-09-08T05:42:35;8.15;;;5.22;;
11427;SDS011;5770;44.504;11.346;2023-09-08T05:45:04;5.93;;;5.00;;
11427;SDS011;5770;44.504;11.346;2023-09-08T05:47:32;7.45;;;5.40;;
11427;SDS011;5770;44.504;11.346;2023-09-08T05:50:01;7.32;;;5.35;;
11427;SDS011;5770;44.504;11.346;2023-09-08T05:52:27;9.30;;;5.88;;
11427;SDS011;5770;44.504;11.346;2023-09-08T05:54:55;10.65;;;5.95;;
11427;SDS011;5770;44.504;11.346;2023-09-08T05:57:22;6.45;;;5.70;;
11427;SDS011;5770;44.504;11.346;2023-09-08T05:59:49;7.78;;;5.88;;
11427;SDS011;5770;44.504;11.346;2023-09-08T06:02:17;7.20;;;5.35;;
11427;SDS011;5770;44.504;11.346;2023-09-08T06:04:44;5.88;;;5.05;;
11427;SDS011;5770;44.504;11.346;2023-09-08T06:07:11;10.80;;;5.78;;
11427;SDS011;5770;44.504;11.346;2023-09-08T06:09:38;7.43;;;5.80;;
11427;SDS011;5770;44.504;11.346;2023-09-08T06:12:05;6.47;;;5.60;;
11427;SDS011;5770;44.504;11.346;2023-09-08T06:14:32;6.80;;;4.97;;
11427;SDS011;5770;44.504;11.346;2023-09-08T06:17:00;7.43;;;5.30;;
11427;SDS011;5770;44.504;11.346;2023-09-08T06:19:28;6.43;;;5.47;;
11427;SDS011;5770;44.504;11.346;2023-09-08T06:21:55;11.32;;;5.95;;
11427;SDS011;5770;44.504;11.346;2023-09-08T06:24:22;11.45;;;5.32;;
11427;SDS011;5770;44.504;11.346;2023-09-08T06:26:50;6.90;;;5.43;;
11427;SDS011;5770;44.504;11.346;2023-09-08T06:29:17;6.05;;;5.40;;
11427;SDS011;5770;44.504;11.346;2023-09-08T06:31:44;10.43;;;5.50;;
11427;SDS011;5770;44.504;11.346;2023-09-08T06:34:11;8.13;;;5.43;;
11427;SDS011;5770;44.504;11.346;2023-09-08T06:36:40;11.48;;;5.80;;
11427;SDS011;5770;44.504;11.346;2023-09-08T06:39:07;8.65;;;5.32;;
11427;SDS011;5770;44.504;11.346;2023-09-08T06:41:34;7.38;;;5.40;;
11427;SDS011;5770;44.504;11.346;2023-09-08T06:44:01;8.77;;;5.80;;
11427;SDS011;5770;44.504;11.346;2023-09-08T06:46:28;9.45;;;6.40;;
11427;SDS011;5770;44.504;11.346;2023-09-08T06:48:55;6.80;;;5.50;;
11427;SDS011;5770;44.504;11.346;2023-09-08T06:51:22;8.73;;;5.10;;
11427;SDS011;5770;44.504;11.346;2023-09-08T06:53:57;7.93;;;5.30;;
11427;SDS011;5770;44.504;11.346;2023-09-08T06:56:25;13.15;;;5.40;;
11427;SDS011;5770;44.504;11.346;2023-09-08T06:58:52;10.98;;;5.63;;
11427;SDS011;5770;44.504;11.346;2023-09-08T07:01:19;13.13;;;5.88;;
11427;SDS011;5770;44.504;11.346;2023-09-08T07:03:46;7.20;;;5.47;;
11427;SDS011;5770;44.504;11.346;2023-09-08T07:06:13;8.80;;;5.40;;
11427;SDS011;5770;44.504;11.346;2023-09-08T07:08:40;7.63;;;5.72;;
11427;SDS011;5770;44.504;11.346;2023-09-08T07:11:09;8.73;;;5.93;;
11427;SDS011;5770;44.504;11.346;2023-09-08T07:13:36;9.63;;;5.72;;
11427;SDS011;5770;44.504;11.346;2023-09-08T07:16:03;6.57;;;5.97;;
11427;SDS011;5770;44.504;11.346;2023-09-08T07:18:31;7.32;;;6.00;;
11427;SDS011;5770;44.504;11.346;2023-09-08T07:21:01;6.93;;;5.82;;
11427;SDS011;5770;44.504;11.346;2023-09-08T07:23:28;8.82;;;6.32;;
11427;SDS011;5770;44.504;11.346;2023-09-08T07:25:55;6.43;;;5.63;;
11427;SDS011;5770;44.504;11.346;2023-09-08T07:28:23;10.07;;;5.72;;
11427;SDS011;5770;44.504;11.346;2023-09-08T07:30:50;14.23;;;6.38;;
11427;SDS011;5770;44.504;11.346;2023-09-08T07:33:17;9.57;;;6.38;;
11427;SDS011;5770;44.504;11.346;2023-09-08T07:35:48;12.80;;;5.45;;
11427;SDS011;5770;44.504;11.346;2023-09-08T07:38:15;7.07;;;5.72;;
11427;SDS011;5770;44.504;11.346;2023-09-08T07:40:42;12.23;;;6.50;;
11427;SDS011;5770;44.504;11.346;2023-09-08T07:43:09;8.10;;;6.30;;
11427;SDS011;5770;44.504;11.346;2023-09-08T07:45:38;7.22;;;6.50;;
11427;SDS011;5770;44.504;11.346;2023-09-08T07:48:05;10.27;;;6.82;;
11427;SDS011;5770;44.504;11.346;2023-09-08T07:50:32;15.95;;;7.05;;
11427;SDS011;5770;44.504;11.346;2023-09-08T07:52:59;13.75;;;5.40;;
11427;SDS011;5770;44.504;11.346;2023-09-08T07:55:27;8.93;;;6.22;;
11427;SDS011;5770;44.504;11.346;2023-09-08T07:57:57;7.80;;;5.95;;
11427;SDS011;5770;44.504;11.346;2023-09-08T08:00:24;20.55;;;7.47;;
11427;SDS011;5770;44.504;11.346;2023-09-08T08:02:53;15.43;;;6.97;;
11427;SDS011;5770;44.504;11.346;2023-09-08T08:05:21;10.82;;;6.63;;
11427;SDS011;5770;44.504;11.346;2023-09-08T08:07:48;8.15;;;6.82;;
11427;SDS011;5770;44.504;11.346;2023-09-08T08:10:15;9.73;;;6.57;;
11427;SDS011;5770;44.504;11.346;2023-09-08T08:12:42;14.95;;;6.88;;
11427;SDS011;5770;44.504;11.346;2023-09-08T08:15:10;11.00;;;6.60;;
11427;SDS011;5770;44.504;11.346;2023-09-08T08:17:37;8.70;;;6.32;;
11427;SDS011;5770;44.504;11.346;2023-09-08T08:20:06;17.67;;;6.50;;
11427;SDS011;5770;44.504;11.346;2023-09-08T08:22:35;11.57;;;6.22;;
11427;SDS011;5770;44.504;11.346;2023-09-08T08:25:02;14.80;;;6.28;;
11427;SDS011;5770;44.504;11.346;2023-09-08T08:27:30;9.82;;;6.18;;
11427;SDS011;5770;44.504;11.346;2023-09-08T08:29:57;10.75;;;6.07;;
11427;SDS011;5770;44.504;11.346;2023-09-08T08:32:25;7.57;;;6.03;;
11427;SDS011;5770;44.504;11.346;2023-09-08T08:34:52;10.10;;;5.70;;
11427;SDS011;5770;44.504;11.346;2023-09-08T08:37:21;9.10;;;5.53;;
11427;SDS011;5770;44.504;11.346;2023-09-08T08:39:48;6.72;;;5.85;;
11427;SDS011;5770;44.504;11.346;2023-09-08T08:42:15;10.40;;;6.18;;
11427;SDS011;5770;44.504;11.346;2023-09-08T08:44:44;10.05;;;6.13;;
11427;SDS011;5770;44.504;11.346;2023-09-08T08:47:11;11.75;;;5.82;;
11427;SDS011;5770;44.504;11.346;2023-09-08T08:49:41;10.20;;;6.10;;
11427;SDS011;5770;44.504;11.346;2023-09-08T08:52:11;7.93;;;6.30;;
11427;SDS011;5770;44.504;11.346;2023-09-08T08:54:40;9.65;;;6.05;;
11427;SDS011;5770;44.504;11.346;2023-09-08T08:57:10;14.35;;;6.43;;
11427;SDS011;5770;44.504;11.346;2023-09-08T08:59:38;14.10;;;6.47;;
11427;SDS011;5770;44.504;11.346;2023-09-08T09:02:06;10.93;;;5.88;;
11427;SDS011;5770;44.504;11.346;2023-09-08T09:04:35;8.77;;;5.63;;
11427;SDS011;5770;44.504;11.346;2023-09-08T09:07:03;8.73;;;6.18;;
11427;SDS011;5770;44.504;11.346;2023-09-08T09:09:31;7.35;;;5.68;;
11427;SDS011;5770;44.504;11.346;2023-09-08T09:11:59;24.10;;;5.90;;
11427;SDS011;5770;44.504;11.346;2023-09-08T09:14:27;15.30;;;6.22;;
11427;SDS011;5770;44.504;11.346;2023-09-08T09:16:57;9.23;;;5.40;;
11427;SDS011;5770;44.504;11.346;2023-09-08T09:19:25;9.02;;;5.35;;
11427;SDS011;5770;44.504;11.346;2023-09-08T09:21:53;20.20;;;5.30;;
11427;SDS011;5770;44.504;11.346;2023-09-08T09:24:28;10.38;;;5.20;;
11427;SDS011;5770;44.504;11.346;2023-09-08T09:26:56;6.50;;;5.00;;
11427;SDS011;5770;44.504;11.346;2023-09-08T09:29:24;9.82;;;5.55;;
11427;SDS011;5770;44.504;11.346;2023-09-08T09:31:52;13.50;;;6.30;;
11427;SDS011;5770;44.504;11.346;2023-09-08T09:34:20;10.35;;;5.47;;
11427;SDS011;5770;44.504;11.346;2023-09-08T09:36:48;11.05;;;5.85;;
11427;SDS011;5770;44.504;11.346;2023-09-08T09:39:18;11.70;;;5.82;;
11427;SDS011;5770;44.504;11.346;2023-09-08T09:41:46;10.43;;;5.72;;
11427;SDS011;5770;44.504;11.346;2023-09-08T09:44:13;10.55;;;5.45;;
11427;SDS011;5770;44.504;11.346;2023-09-08T09:46:44;5.95;;;5.35;;
11427;SDS011;5770;44.504;11.346;2023-09-08T09:49:12;7.65;;;5.35;;
11427;SDS011;5770;44.504;11.346;2023-09-08T09:51:40;9.73;;;5.65;;
11427;SDS011;5770;44.504;11.346;2023-09-08T09:54:08;9.25;;;5.28;;
11427;SDS011;5770;44.504;11.346;2023-09-08T09:56:36;12.55;;;5.60;;
11427;SDS011;5770;44.504;11.346;2023-09-08T09:59:04;8.45;;;5.38;;
11427;SDS011;5770;44.504;11.346;2023-09-08T10:01:31;16.63;;;5.13;;
11427;SDS011;5770;44.504;11.346;2023-09-08T10:03:59;7.82;;;5.72;;
11427;SDS011;5770;44.504;11.346;2023-09-08T10:06:28;7.30;;;5.07;;
11427;SDS011;5770;44.504;11.346;2023-09-08T10:08:56;11.07;;;5.57;;
11427;SDS011;5770;44.504;11.346;2023-09-08T10:11:25;5.90;;;5.30;;
11427;SDS011;5770;44.504;11.346;2023-09-08T10:13:55;11.05;;;5.05;;
11427;SDS011;5770;44.504;11.346;2023-09-08T10:16:24;7.53;;;5.57;;
11427;SDS011;5770;44.504;11.346;2023-09-08T10:18:53;6.13;;;5.22;;
11427;SDS011;5770;44.504;11.346;2023-09-08T10:21:26;5.82;;;5.25;;
11427;SDS011;5770;44.504;11.346;2023-09-08T10:23:57;10.40;;;5.85;;
11427;SDS011;5770;44.504;11.346;2023-09-08T10:26:26;8.45;;;5.80;;
11427;SDS011;5770;44.504;11.346;2023-09-08T10:28:55;9.88;;;5.38;;
11427;SDS011;5770;44.504;11.346;2023-09-08T10:31:23;6.80;;;5.38;;
11427;SDS011;5770;44.504;11.346;2023-09-08T10:33:52;7.70;;;5.88;;
11427;SDS011;5770;44.504;11.346;2023-09-08T10:36:20;6.63;;;5.32;;
11427;SDS011;5770;44.504;11.346;2023-09-08T10:38:48;8.07;;;5.22;;
11427;SDS011;5770;44.504;11.346;2023-09-08T10:44:02;7.30;;;5.32;;
11427;SDS011;5770;44.504;11.346;2023-09-08T10:46:33;6.57;;;5.40;;
11427;SDS011;5770;44.504;11.346;2023-09-08T10:49:01;9.25;;;5.80;;
11427;SDS011;5770;44.504;11.346;2023-09-08T10:51:29;7.38;;;5.07;;
11427;SDS011;5770;44.504;11.346;2023-09-08T10:53:58;6.45;;;5.38;;
11427;SDS011;5770;44.504;11.346;2023-09-08T10:56:28;5.82;;;5.32;;
11427;SDS011;5770;44.504;11.346;2023-09-08T10:59:13;10.65;;;5.43;;
11427;SDS011;5770;44.504;11.346;2023-09-08T11:01:41;10.80;;;5.40;;
11427;SDS011;5770;44.504;11.346;2023-09-08T11:04:08;8.90;;;5.40;;
11427;SDS011;5770;44.504;11.346;2023-09-08T11:06:38;7.57;;;5.32;;
11427;SDS011;5770;44.504;11.346;2023-09-08T11:09:07;6.50;;;5.18;;
11427;SDS011;5770;44.504;11.346;2023-09-08T11:11:34;5.55;;;5.05;;
11427;SDS011;5770;44.504;11.346;2023-09-08T11:14:02;9.00;;;5.03;;
11427;SDS011;5770;44.504;11.346;2023-09-08T11:16:30;7.90;;;5.75;;
11427;SDS011;5770;44.504;11.346;2023-09-08T11:18:58;9.90;;;5.40;;
11427;SDS011;5770;44.504;11.346;2023-09-08T11:21:26;6.30;;;5.00;;
11427;SDS011;5770;44.504;11.346;2023-09-08T11:23:59;6.75;;;4.97;;
11427;SDS011;5770;44.504;11.346;2023-09-08T11:26:28;6.38;;;4.85;;
11427;SDS011;5770;44.504;11.346;2023-09-08T11:28:55;9.82;;;5.13;;
11427;SDS011;5770;44.504;11.346;2023-09-08T11:31:23;6.45;;;4.93;;
11427;SDS011;5770;44.504;11.346;2023-09-08T11:33:54;5.13;;;4.63;;
11427;SDS011;5770;44.504;11.346;2023-09-08T11:36:21;6.00;;;5.45;;
11427;SDS011;5770;44.504;11.346;2023-09-08T11:38:48;8.98;;;5.38;;
11427;SDS011;5770;44.504;11.346;2023-09-08T11:41:15;8.50;;;5.20;;
11427;SDS011;5770;44.504;11.346;2023-09-08T11:43:48;8.00;;;4.85;;
11427;SDS011;5770;44.504;11.346;2023-09-08T11:46:16;7.57;;;4.97;;
11427;SDS011;5770;44.504;11.346;2023-09-08T11:48:44;9.23;;;4.90;;
11427;SDS011;5770;44.504;11.346;2023-09-08T11:51:11;6.63;;;5.20;;
11427;SDS011;5770;44.504;11.346;2023-09-08T11:53:38;8.20;;;5.38;;
11427;SDS011;5770;44.504;11.346;2023-09-08T11:56:05;6.03;;;5.43;;
11427;SDS011;5770;44.504;11.346;2023-09-08T11:58:32;7.28;;;6.00;;
11427;SDS011;5770;44.504;11.346;2023-09-08T12:01:01;5.68;;;5.07;;
11427;SDS011;5770;44.504;11.346;2023-09-08T12:03:29;7.63;;;5.22;;
11427;SDS011;5770;44.504;11.346;2023-09-08T12:05:56;10.13;;;5.28;;
11427;SDS011;5770;44.504;11.346;2023-09-08T12:08:24;7.93;;;5.20;;
11427;SDS011;5770;44.504;11.346;2023-09-08T12:10:53;5.72;;;4.93;;
11427;SDS011;5770;44.504;11.346;2023-09-08T12:13:20;6.82;;;5.30;;
11427;SDS011;5770;44.504;11.346;2023-09-08T12:15:48;6.25;;;5.13;;
11427;SDS011;5770;44.504;11.346;2023-09-08T12:18:17;12.60;;;5.72;;
11427;SDS011;5770;44.504;11.346;2023-09-08T12:20:44;10.63;;;5.35;;
11427;SDS011;5770;44.504;11.346;2023-09-08T12:23:18;8.40;;;6.00;;
11427;SDS011;5770;44.504;11.346;2023-09-08T12:25:45;5.97;;;5.38;;
11427;SDS011;5770;44.504;11.346;2023-09-08T12:28:13;5.97;;;5.38;;
11427;SDS011;5770;44.504;11.346;2023-09-08T12:30:40;6.97;;;5.03;;
11427;SDS011;5770;44.504;11.346;2023-09-08T12:33:07;5.97;;;5.38;;
11427;SDS011;5770;44.504;11.346;2023-09-08T12:35:36;8.35;;;5.18;;
11427;SDS011;5770;44.504;11.346;2023-09-08T12:38:04;11.40;;;5.40;;
11427;SDS011;5770;44.504;11.346;2023-09-08T12:40:33;7.43;;;5.30;;
11427;SDS011;5770;44.504;11.346;2023-09-08T12:43:00;6.78;;;5.50;;
11427;SDS011;5770;44.504;11.346;2023-09-08T12:45:28;6.78;;;5.13;;
11427;SDS011;5770;44.504;11.346;2023-09-08T12:47:57;10.60;;;5.63;;
11427;SDS011;5770;44.504;11.346;2023-09-08T12:50:24;8.13;;;5.30;;
11427;SDS011;5770;44.504;11.346;2023-09-08T12:52:53;6.18;;;5.50;;
11427;SDS011;5770;44.504;11.346;2023-09-08T12:55:20;6.20;;;5.03;;
11427;SDS011;5770;44.504;11.346;2023-09-08T12:57:47;11.68;;;5.53;;
11427;SDS011;5770;44.504;11.346;2023-09-08T13:00:15;10.90;;;5.10;;
11427;SDS011;5770;44.504;11.346;2023-09-08T13:02:43;7.45;;;5.50;;
11427;SDS011;5770;44.504;11.346;2023-09-08T13:05:10;5.00;;;4.50;;
11427;SDS011;5770;44.504;11.346;2023-09-08T13:07:38;11.10;;;5.38;;
11427;SDS011;5770;44.504;11.346;2023-09-08T13:10:07;10.13;;;4.85;;
11427;SDS011;5770;44.504;11.346;2023-09-08T13:12:34;6.53;;;5.30;;
11427;SDS011;5770;44.504;11.346;2023-09-08T13:15:02;10.15;;;5.70;;
11427;SDS011;5770;44.504;11.346;2023-09-08T13:17:29;9.05;;;5.60;;
11427;SDS011;5770;44.504;11.346;2023-09-08T13:19:56;7.18;;;5.38;;
11427;SDS011;5770;44.504;11.346;2023-09-08T13:22:24;6.10;;;5.50;;
11427;SDS011;5770;44.504;11.346;2023-09-08T13:24:51;6.03;;;4.93;;
11427;SDS011;5770;44.504;11.346;2023-09-08T13:27:19;7.63;;;5.18;;
11427;SDS011;5770;44.504;11.346;2023-09-08T13:29:46;6.57;;;5.18;;
11427;SDS011;5770;44.504;11.346;2023-09-08T13:32:14;7.18;;;5.32;;
11427;SDS011;5770;44.504;11.346;2023-09-08T13:34:41;7.22;;;5.53;;
11427;SDS011;5770;44.504;11.346;2023-09-08T13:37:09;9.35;;;5.60;;
11427;SDS011;5770;44.504;11.346;2023-09-08T13:39:36;5.65;;;5.15;;
11427;SDS011;5770;44.504;11.346;2023-09-08T13:42:03;6.85;;;5.50;;
11427;SDS011;5770;44.504;11.346;2023-09-08T13:44:33;8.50;;;5.43;;
11427;SDS011;5770;44.504;11.346;2023-09-08T13:47:01;10.40;;;5.70;;
11427;SDS011;5770;44.504;11.346;2023-09-08T13:49:27;9.32;;;5.82;;
11427;SDS011;5770;44.504;11.346;2023-09-08T13:54:39;8.07;;;7.07;;
11427;SDS011;5770;44.504;11.346;2023-09-08T13:57:06;9.70;;;6.70;;
11427;SDS011;5770;44.504;11.346;2023-09-08T13:59:35;5.50;;;5.00;;
11427;SDS011;5770;44.504;11.346;2023-09-08T14:02:03;8.40;;;5.40;;
11427;SDS011;5770;44.504;11.346;2023-09-08T14:04:30;6.68;;;5.70;;
11427;SDS011;5770;44.504;11.346;2023-09-08T14:06:57;7.82;;;5.45;;
11427;SDS011;5770;44.504;11.346;2023-09-08T14:09:24;6.90;;;5.05;;
11427;SDS011;5770;44.504;11.346;2023-09-08T14:11:52;7.80;;;5.03;;
11427;SDS011;5770;44.504;11.346;2023-09-08T14:14:19;9.57;;;5.40;;
11427;SDS011;5770;44.504;11.346;2023-09-08T14:16:51;6.13;;;5.53;;
11427;SDS011;5770;44.504;11.346;2023-09-08T14:19:21;7.85;;;5.78;;
11427;SDS011;5770;44.504;11.346;2023-09-08T14:21:48;5.70;;;5.07;;
11427;SDS011;5770;44.504;11.346;2023-09-08T14:24:15;8.38;;;5.10;;
11427;SDS011;5770;44.504;11.346;2023-09-08T14:26:42;8.15;;;5.70;;
11427;SDS011;5770;44.504;11.346;2023-09-08T14:29:10;6.18;;;5.38;;
11427;SDS011;5770;44.504;11.346;2023-09-08T14:31:37;5.75;;;5.15;;
11427;SDS011;5770;44.504;11.346;2023-09-08T14:34:05;10.10;;;5.60;;
11427;SDS011;5770;44.504;11.346;2023-09-08T14:36:32;8.68;;;5.57;;
11427;SDS011;5770;44.504;11.346;2023-09-08T14:38:59;5.75;;;5.10;;
11427;SDS011;5770;44.504;11.346;2023-09-08T14:41:26;5.75;;;5.25;;
11427;SDS011;5770;44.504;11.346;2023-09-08T14:43:53;5.97;;;5.35;;
11427;SDS011;5770;44.504;11.346;2023-09-08T14:46:21;5.43;;;4.97;;
11427;SDS011;5770;44.504;11.346;2023-09-08T14:48:48;8.02;;;5.97;;
11427;SDS011;5770;44.504;11.346;2023-09-08T14:51:16;9.48;;;5.32;;
11427;SDS011;5770;44.504;11.346;2023-09-08T14:53:44;6.88;;;5.32;;
11427;SDS011;5770;44.504;11.346;2023-09-08T14:56:11;7.63;;;6.93;;
11427;SDS011;5770;44.504;11.346;2023-09-08T14:58:38;12.38;;;8.85;;